Russell, KS

10:03 AM CDT on August 30, 2016 (GMT -0500)
Russell Municipal | | Change Station

Elev 1864 ft 38.87 °N, 98.81 °W | Updated 10 minutes ago

Light Rain
Light Rain
72 °F
Feels Like 72 °F
N
0
Wind Variable Wind from North

Today
High -- | Low -- °F
--% Chance of Precip.
Yesterday
High -- | Low -- °F
Precip. -- in
Pressure 30.17 in
Visibility 10.0 miles
Clouds Overcast 600 ft
Dew Point 68 °F
Humidity 87%
Rainfall 0.00 in
Snow Depth Not available.
7:03 AM 8:07 PM
Waning Crescent, 3% visible
METAR KRSL 301453Z AUTO 00000KT 10SM -RA OVC006 22/20 A3021 RMK AO2 RAB07 SLP217 P0000 60000 T02220200 51005
Pressure 30.17 in
Visibility 10.0 miles
Clouds Overcast 600 ft
Dew Point 68 °F
Humidity 87%
Rainfall 0.00 in
Snow Depth Not available.
7:03 AM 8:07 PM
Waning Crescent, 3% visible
METAR KRSL 301453Z AUTO 00000KT 10SM -RA OVC006 22/20 A3021 RMK AO2 RAB07 SLP217 P0000 60000 T02220200 51005

10-Day Weather Forecast

Almanac

Astronomy

Aug. 30, 2016 Rise Set
Actual Time
Civil Twilight
Nautical Twilight
Astronomical Twilight
Moon
Length of Visible Light
Length of Day
Tomorrow will be .
, % of the Moon is Illuminated

Today's Extremes

State Highs State Lows

Community

WunderPhotos

Upload Photos

1,935,853 photos uploaded!

WunderBlog® & News

Nearby

Air Quality

  Air Quality AQ Index Pollutant
Not available.

Snow Depth

Station Depth Elevation

Earthquake Activity

City Distance Mag. Time & Date
Minimum magnitude displayed is 2.5.

Coastal Water Temperatures

Place Temperature

Stations

Nearby Weather Stations

Station Location Temp. Windchill Dew Point Humidity Wind Precip. Elev Updated Type
                   

Watches & Warnings

There are currently no watches in effect.